sensor_id;sensor_type;location;lat;lon;timestamp;pressure;altitude;pressure_sealevel;temperature;humidity
12203;BME280;6164;42.178;24.622;2024-02-23T00:02:05;99618.00;;;4.40;100.00
12203;BME280;6164;42.178;24.622;2024-02-23T00:04:31;99612.00;;;4.49;100.00
12203;BME280;6164;42.178;24.622;2024-02-23T00:06:58;99625.25;;;4.57;100.00
12203;BME280;6164;42.178;24.622;2024-02-23T00:09:24;99616.34;;;4.39;100.00
12203;BME280;6164;42.178;24.622;2024-02-23T00:11:53;99615.84;;;4.25;100.00
12203;BME280;6164;42.178;24.622;2024-02-23T00:14:20;99621.63;;;4.07;100.00
12203;BME280;6164;42.178;24.622;2024-02-23T00:16:46;99605.19;;;3.96;100.00
12203;BME280;6164;42.178;24.622;2024-02-23T00:19:13;99600.28;;;4.02;100.00
12203;BME280;6164;42.178;24.622;2024-02-23T00:21:40;99608.91;;;3.93;100.00
12203;BME280;6164;42.178;24.622;2024-02-23T00:24:07;99600.81;;;3.96;100.00
12203;BME280;6164;42.178;24.622;2024-02-23T00:26:34;99603.53;;;3.95;100.00
12203;BME280;6164;42.178;24.622;2024-02-23T00:29:02;99606.28;;;3.93;100.00
12203;BME280;6164;42.178;24.622;2024-02-23T00:31:28;99611.88;;;4.10;100.00
12203;BME280;6164;42.178;24.622;2024-02-23T00:33:55;99604.63;;;4.13;100.00
12203;BME280;6164;42.178;24.622;2024-02-23T00:36:21;99598.03;;;4.19;100.00
12203;BME280;6164;42.178;24.622;2024-02-23T00:38:48;99600.44;;;4.22;100.00
12203;BME280;6164;42.178;24.622;2024-02-23T00:41:14;99596.06;;;4.32;100.00
12203;BME280;6164;42.178;24.622;2024-02-23T00:43:41;99594.84;;;4.36;100.00
12203;BME280;6164;42.178;24.622;2024-02-23T00:46:09;99594.19;;;4.43;100.00
12203;BME280;6164;42.178;24.622;2024-02-23T00:48:36;99591.47;;;4.45;100.00
12203;BME280;6164;42.178;24.622;2024-02-23T00:51:02;99593.00;;;4.47;100.00
12203;BME280;6164;42.178;24.622;2024-02-23T00:53:30;99591.94;;;4.50;100.00
12203;BME280;6164;42.178;24.622;2024-02-23T00:55:56;99586.56;;;4.51;100.00
12203;BME280;6164;42.178;24.622;2024-02-23T00:58:23;99584.50;;;4.55;100.00
12203;BME280;6164;42.178;24.622;2024-02-23T01:00:49;99572.41;;;4.54;100.00
12203;BME280;6164;42.178;24.622;2024-02-23T01:03:17;99569.78;;;4.54;100.00
12203;BME280;6164;42.178;24.622;2024-02-23T01:05:44;99575.72;;;4.56;100.00
12203;BME280;6164;42.178;24.622;2024-02-23T01:08:10;99578.31;;;4.56;100.00
12203;BME280;6164;42.178;24.622;2024-02-23T01:10:37;99579.84;;;4.58;100.00
12203;BME280;6164;42.178;24.622;2024-02-23T01:13:03;99579.97;;;4.57;100.00
12203;BME280;6164;42.178;24.622;2024-02-23T01:15:30;99580.94;;;4.56;100.00
12203;BME280;6164;42.178;24.622;2024-02-23T01:17:57;99577.63;;;4.54;100.00
12203;BME280;6164;42.178;24.622;2024-02-23T01:20:25;99576.78;;;4.53;100.00
12203;BME280;6164;42.178;24.622;2024-02-23T01:22:51;99573.63;;;4.50;100.00
12203;BME280;6164;42.178;24.622;2024-02-23T01:25:18;99571.81;;;4.50;100.00
12203;BME280;6164;42.178;24.622;2024-02-23T01:27:44;99561.63;;;4.47;100.00
12203;BME280;6164;42.178;24.622;2024-02-23T01:30:11;99569.59;;;4.46;100.00
12203;BME280;6164;42.178;24.622;2024-02-23T01:32:37;99558.00;;;4.39;100.00
12203;BME280;6164;42.178;24.622;2024-02-23T01:35:04;99563.91;;;4.31;100.00
12203;BME280;6164;42.178;24.622;2024-02-23T01:37:32;99566.06;;;4.26;100.00
12203;BME280;6164;42.178;24.622;2024-02-23T01:39:59;99562.88;;;4.23;100.00
12203;BME280;6164;42.178;24.622;2024-02-23T01:42:26;99556.50;;;4.16;100.00
12203;BME280;6164;42.178;24.622;2024-02-23T01:44:52;99554.81;;;4.05;100.00
12203;BME280;6164;42.178;24.622;2024-02-23T01:47:21;99563.00;;;4.00;100.00
12203;BME280;6164;42.178;24.622;2024-02-23T01:49:47;99551.50;;;4.03;100.00
12203;BME280;6164;42.178;24.622;2024-02-23T01:52:14;99544.50;;;4.03;100.00
12203;BME280;6164;42.178;24.622;2024-02-23T01:54:42;99557.28;;;4.07;100.00
12203;BME280;6164;42.178;24.622;2024-02-23T01:57:09;99553.97;;;4.04;100.00
12203;BME280;6164;42.178;24.622;2024-02-23T01:59:36;99552.94;;;3.96;100.00
12203;BME280;6164;42.178;24.622;2024-02-23T02:02:04;99549.94;;;4.00;100.00
12203;BME280;6164;42.178;24.622;2024-02-23T02:04:30;99544.50;;;4.03;100.00
12203;BME280;6164;42.178;24.622;2024-02-23T02:06:57;99550.25;;;4.07;100.00
12203;BME280;6164;42.178;24.622;2024-02-23T02:09:25;99539.59;;;4.10;100.00
12203;BME280;6164;42.178;24.622;2024-02-23T02:11:53;99551.53;;;4.13;100.00
12203;BME280;6164;42.178;24.622;2024-02-23T02:14:19;99545.88;;;4.07;100.00
12203;BME280;6164;42.178;24.622;2024-02-23T02:16:46;99551.22;;;4.06;100.00
12203;BME280;6164;42.178;24.622;2024-02-23T02:19:12;99553.59;;;3.88;100.00
12203;BME280;6164;42.178;24.622;2024-02-23T02:21:39;99557.59;;;3.92;100.00
12203;BME280;6164;42.178;24.622;2024-02-23T02:24:06;99554.22;;;3.81;100.00
12203;BME280;6164;42.178;24.622;2024-02-23T02:26:33;99560.56;;;3.67;100.00
12203;BME280;6164;42.178;24.622;2024-02-23T02:29:00;99551.84;;;3.57;100.00
12203;BME280;6164;42.178;24.622;2024-02-23T02:31:27;99557.59;;;3.40;100.00
12203;BME280;6164;42.178;24.622;2024-02-23T02:33:53;99560.94;;;3.31;100.00
12203;BME280;6164;42.178;24.622;2024-02-23T02:36:20;99559.59;;;3.05;100.00
12203;BME280;6164;42.178;24.622;2024-02-23T02:38:46;99560.72;;;2.81;100.00
12203;BME280;6164;42.178;24.622;2024-02-23T02:41:13;99554.56;;;2.82;100.00
12203;BME280;6164;42.178;24.622;2024-02-23T02:43:39;99561.66;;;2.68;100.00
12203;BME280;6164;42.178;24.622;2024-02-23T02:46:07;99553.16;;;2.66;100.00
12203;BME280;6164;42.178;24.622;2024-02-23T02:48:34;99550.66;;;2.54;100.00
12203;BME280;6164;42.178;24.622;2024-02-23T02:51:00;99563.22;;;2.60;100.00
12203;BME280;6164;42.178;24.622;2024-02-23T02:53:27;99558.25;;;2.57;100.00
12203;BME280;6164;42.178;24.622;2024-02-23T02:55:53;99563.69;;;2.54;100.00
12203;BME280;6164;42.178;24.622;2024-02-23T02:58:19;99564.75;;;2.51;100.00
12203;BME280;6164;42.178;24.622;2024-02-23T03:00:46;99565.56;;;2.41;100.00
12203;BME280;6164;42.178;24.622;2024-02-23T03:03:14;99561.69;;;2.46;100.00
12203;BME280;6164;42.178;24.622;2024-02-23T03:05:40;99553.38;;;2.41;100.00
12203;BME280;6164;42.178;24.622;2024-02-23T03:08:07;99572.94;;;2.47;100.00
12203;BME280;6164;42.178;24.622;2024-02-23T03:10:33;99571.38;;;2.44;100.00
12203;BME280;6164;42.178;24.622;2024-02-23T03:13:00;99563.56;;;2.44;100.00
12203;BME280;6164;42.178;24.622;2024-02-23T03:15:26;99570.78;;;2.30;100.00
12203;BME280;6164;42.178;24.622;2024-02-23T03:17:53;99565.09;;;2.36;100.00
12203;BME280;6164;42.178;24.622;2024-02-23T03:20:21;99571.75;;;2.40;100.00
12203;BME280;6164;42.178;24.622;2024-02-23T03:22:47;99566.41;;;2.41;100.00
12203;BME280;6164;42.178;24.622;2024-02-23T03:25:14;99571.13;;;2.47;100.00
12203;BME280;6164;42.178;24.622;2024-02-23T03:27:40;99571.25;;;2.46;100.00
12203;BME280;6164;42.178;24.622;2024-02-23T03:30:10;99577.91;;;2.50;100.00
12203;BME280;6164;42.178;24.622;2024-02-23T03:32:37;99580.50;;;2.50;100.00
12203;BME280;6164;42.178;24.622;2024-02-23T03:35:04;99579.56;;;2.51;100.00
12203;BME280;6164;42.178;24.622;2024-02-23T03:37:32;99573.38;;;2.41;100.00
12203;BME280;6164;42.178;24.622;2024-02-23T03:39:59;99575.53;;;2.47;100.00
12203;BME280;6164;42.178;24.622;2024-02-23T03:42:26;99582.16;;;2.51;100.00
12203;BME280;6164;42.178;24.622;2024-02-23T03:44:52;99576.72;;;2.43;100.00
12203;BME280;6164;42.178;24.622;2024-02-23T03:47:19;99573.97;;;2.55;100.00
12203;BME280;6164;42.178;24.622;2024-02-23T03:49:45;99578.75;;;2.61;100.00
12203;BME280;6164;42.178;24.622;2024-02-23T03:52:12;99576.38;;;2.69;100.00
12203;BME280;6164;42.178;24.622;2024-02-23T03:54:40;99583.09;;;2.72;100.00
12203;BME280;6164;42.178;24.622;2024-02-23T03:57:06;99578.13;;;2.69;100.00
12203;BME280;6164;42.178;24.622;2024-02-23T03:59:35;99572.00;;;2.70;100.00
12203;BME280;6164;42.178;24.622;2024-02-23T04:02:02;99573.38;;;2.74;100.00
12203;BME280;6164;42.178;24.622;2024-02-23T04:04:29;99576.84;;;2.75;100.00
12203;BME280;6164;42.178;24.622;2024-02-23T04:06:55;99584.41;;;2.78;100.00
12203;BME280;6164;42.178;24.622;2024-02-23T04:09:22;99592.00;;;2.69;100.00
12203;BME280;6164;42.178;24.622;2024-02-23T04:11:49;99587.50;;;2.72;100.00
12203;BME280;6164;42.178;24.622;2024-02-23T04:14:16;99596.97;;;2.72;100.00
12203;BME280;6164;42.178;24.622;2024-02-23T04:16:42;99589.03;;;2.63;100.00
12203;BME280;6164;42.178;24.622;2024-02-23T04:19:09;99597.09;;;2.60;100.00
12203;BME280;6164;42.178;24.622;2024-02-23T04:21:35;99585.25;;;2.45;100.00
12203;BME280;6164;42.178;24.622;2024-02-23T04:24:02;99583.09;;;2.39;100.00
12203;BME280;6164;42.178;24.622;2024-02-23T04:26:28;99580.88;;;2.45;100.00
12203;BME280;6164;42.178;24.622;2024-02-23T04:28:56;99588.69;;;2.45;100.00
12203;BME280;6164;42.178;24.622;2024-02-23T04:31:23;99593.97;;;2.33;100.00
12203;BME280;6164;42.178;24.622;2024-02-23T04:33:49;99597.19;;;2.36;100.00
12203;BME280;6164;42.178;24.622;2024-02-23T04:36:18;99599.06;;;2.34;100.00
12203;BME280;6164;42.178;24.622;2024-02-23T04:38:45;99599.56;;;2.28;100.00
12203;BME280;6164;42.178;24.622;2024-02-23T04:41:11;99597.13;;;2.14;100.00
12203;BME280;6164;42.178;24.622;2024-02-23T04:43:38;99603.19;;;2.15;100.00
12203;BME280;6164;42.178;24.622;2024-02-23T04:46:07;99600.34;;;2.07;100.00
12203;BME280;6164;42.178;24.622;2024-02-23T04:48:33;99597.34;;;2.00;100.00
12203;BME280;6164;42.178;24.622;2024-02-23T04:51:01;99591.19;;;2.01;100.00
12203;BME280;6164;42.178;24.622;2024-02-23T04:53:27;99593.91;;;2.00;100.00
12203;BME280;6164;42.178;24.622;2024-02-23T04:55:54;99589.53;;;1.89;100.00
12203;BME280;6164;42.178;24.622;2024-02-23T04:58:20;99587.78;;;2.01;100.00
12203;BME280;6164;42.178;24.622;2024-02-23T05:00:47;99597.00;;;2.05;100.00
12203;BME280;6164;42.178;24.622;2024-02-23T05:03:15;99603.78;;;2.07;100.00
12203;BME280;6164;42.178;24.622;2024-02-23T05:05:41;99600.09;;;1.99;100.00
12203;BME280;6164;42.178;24.622;2024-02-23T05:08:08;99610.03;;;2.05;100.00
12203;BME280;6164;42.178;24.622;2024-02-23T05:10:35;99609.88;;;1.95;100.00
12203;BME280;6164;42.178;24.622;2024-02-23T05:13:01;99623.47;;;1.88;100.00
12203;BME280;6164;42.178;24.622;2024-02-23T05:15:28;99615.69;;;1.64;100.00
12203;BME280;6164;42.178;24.622;2024-02-23T05:17:54;99614.34;;;1.59;100.00
12203;BME280;6164;42.178;24.622;2024-02-23T05:20:22;99613.44;;;1.60;100.00
12203;BME280;6164;42.178;24.622;2024-02-23T05:22:48;99600.69;;;1.68;100.00
12203;BME280;6164;42.178;24.622;2024-02-23T05:25:15;99607.00;;;1.76;100.00
12203;BME280;6164;42.178;24.622;2024-02-23T05:27:41;99617.72;;;1.72;100.00
12203;BME280;6164;42.178;24.622;2024-02-23T05:30:08;99630.03;;;1.70;100.00
12203;BME280;6164;42.178;24.622;2024-02-23T05:32:35;99621.94;;;1.62;100.00
12203;BME280;6164;42.178;24.622;2024-02-23T05:35:02;99624.91;;;1.68;100.00
12203;BME280;6164;42.178;24.622;2024-02-23T05:37:30;99625.63;;;1.70;100.00
12203;BME280;6164;42.178;24.622;2024-02-23T05:39:56;99630.03;;;1.70;100.00
12203;BME280;6164;42.178;24.622;2024-02-23T05:42:24;99631.81;;;1.69;100.00
12203;BME280;6164;42.178;24.622;2024-02-23T05:44:51;99635.13;;;1.71;100.00
12203;BME280;6164;42.178;24.622;2024-02-23T05:47:17;99636.00;;;1.83;100.00
12203;BME280;6164;42.178;24.622;2024-02-23T05:49:46;99643.84;;;1.94;100.00
12203;BME280;6164;42.178;24.622;2024-02-23T05:52:12;99642.88;;;1.95;100.00
12203;BME280;6164;42.178;24.622;2024-02-23T05:54:41;99641.00;;;1.97;100.00
12203;BME280;6164;42.178;24.622;2024-02-23T05:57:07;99652.75;;;2.02;100.00
12203;BME280;6164;42.178;24.622;2024-02-23T05:59:34;99652.63;;;2.04;100.00
12203;BME280;6164;42.178;24.622;2024-02-23T06:02:00;99651.31;;;1.98;100.00
12203;BME280;6164;42.178;24.622;2024-02-23T06:04:27;99659.25;;;2.08;100.00
12203;BME280;6164;42.178;24.622;2024-02-23T06:06:54;99656.06;;;2.04;100.00
12203;BME280;6164;42.178;24.622;2024-02-23T06:09:20;99657.31;;;2.22;100.00
12203;BME280;6164;42.178;24.622;2024-02-23T06:11:48;99667.28;;;2.39;100.00
12203;BME280;6164;42.178;24.622;2024-02-23T06:14:14;99664.81;;;2.49;100.00
12203;BME280;6164;42.178;24.622;2024-02-23T06:16:41;99665.66;;;2.49;100.00
12203;BME280;6164;42.178;24.622;2024-02-23T06:19:08;99667.59;;;2.69;100.00
12203;BME280;6164;42.178;24.622;2024-02-23T06:21:34;99678.38;;;2.87;100.00
12203;BME280;6164;42.178;24.622;2024-02-23T06:24:01;99671.03;;;3.03;100.00
12203;BME280;6164;42.178;24.622;2024-02-23T06:26:28;99683.13;;;3.15;100.00
12203;BME280;6164;42.178;24.622;2024-02-23T06:28:56;99679.69;;;3.26;100.00
12203;BME280;6164;42.178;24.622;2024-02-23T06:31:22;99674.69;;;3.34;100.00
12203;BME280;6164;42.178;24.622;2024-02-23T06:33:50;99679.88;;;3.45;100.00
12203;BME280;6164;42.178;24.622;2024-02-23T06:36:17;99686.16;;;3.53;100.00
12203;BME280;6164;42.178;24.622;2024-02-23T06:38:44;99686.72;;;3.68;100.00
12203;BME280;6164;42.178;24.622;2024-02-23T06:41:11;99690.28;;;3.67;100.00
12203;BME280;6164;42.178;24.622;2024-02-23T06:43:37;99674.84;;;3.75;100.00
12203;BME280;6164;42.178;24.622;2024-02-23T06:46:06;99669.31;;;3.89;100.00
12203;BME280;6164;42.178;24.622;2024-02-23T06:48:33;99681.00;;;4.05;100.00
12203;BME280;6164;42.178;24.622;2024-02-23T06:50:59;99674.03;;;4.27;100.00
12203;BME280;6164;42.178;24.622;2024-02-23T06:53:26;99670.84;;;4.44;100.00
12203;BME280;6164;42.178;24.622;2024-02-23T06:55:52;99671.78;;;4.63;100.00
12203;BME280;6164;42.178;24.622;2024-02-23T06:58:19;99676.38;;;4.71;100.00
12203;BME280;6164;42.178;24.622;2024-02-23T07:00:45;99666.72;;;4.92;100.00
12203;BME280;6164;42.178;24.622;2024-02-23T07:03:14;99673.13;;;5.08;100.00
12203;BME280;6164;42.178;24.622;2024-02-23T07:05:41;99669.16;;;5.14;100.00
12203;BME280;6164;42.178;24.622;2024-02-23T07:08:08;99675.94;;;5.26;100.00
12203;BME280;6164;42.178;24.622;2024-02-23T07:10:34;99677.50;;;5.38;100.00
12203;BME280;6164;42.178;24.622;2024-02-23T07:13:01;99670.78;;;5.45;100.00
12203;BME280;6164;42.178;24.622;2024-02-23T07:15:27;99661.97;;;5.65;100.00
12203;BME280;6164;42.178;24.622;2024-02-23T07:17:54;99665.50;;;5.85;100.00
12203;BME280;6164;42.178;24.622;2024-02-23T07:20:22;99661.09;;;6.04;100.00
12203;BME280;6164;42.178;24.622;2024-02-23T07:22:49;99656.09;;;6.20;100.00
12203;BME280;6164;42.178;24.622;2024-02-23T07:25:16;99652.91;;;6.36;100.00
12203;BME280;6164;42.178;24.622;2024-02-23T07:27:42;99651.78;;;6.48;100.00
12203;BME280;6164;42.178;24.622;2024-02-23T07:30:10;99650.13;;;6.56;100.00
12203;BME280;6164;42.178;24.622;2024-02-23T07:32:36;99644.69;;;6.67;100.00
12203;BME280;6164;42.178;24.622;2024-02-23T07:35:03;99643.88;;;6.77;100.00
12203;BME280;6164;42.178;24.622;2024-02-23T07:37:31;99644.66;;;6.87;100.00
12203;BME280;6164;42.178;24.622;2024-02-23T07:39:57;99640.88;;;6.99;100.00
12203;BME280;6164;42.178;24.622;2024-02-23T07:42:24;99644.53;;;7.15;100.00
12203;BME280;6164;42.178;24.622;2024-02-23T07:44:50;99628.31;;;7.29;100.00
12203;BME280;6164;42.178;24.622;2024-02-23T07:47:17;99634.56;;;7.46;100.00
12203;BME280;6164;42.178;24.622;2024-02-23T07:49:43;99634.72;;;7.62;100.00
12203;BME280;6164;42.178;24.622;2024-02-23T07:52:10;99623.63;;;7.68;100.00
12203;BME280;6164;42.178;24.622;2024-02-23T07:54:38;99619.66;;;7.81;100.00
12203;BME280;6164;42.178;24.622;2024-02-23T07:57:04;99611.09;;;7.97;100.00
12203;BME280;6164;42.178;24.622;2024-02-23T07:59:32;99616.19;;;8.16;100.00
12203;BME280;6164;42.178;24.622;2024-02-23T08:01:59;99614.38;;;8.34;100.00
12203;BME280;6164;42.178;24.622;2024-02-23T08:04:25;99620.41;;;8.52;100.00
12203;BME280;6164;42.178;24.622;2024-02-23T08:06:52;99621.72;;;8.74;100.00
12203;BME280;6164;42.178;24.622;2024-02-23T08:09:18;99620.50;;;8.94;100.00
12203;BME280;6164;42.178;24.622;2024-02-23T08:11:48;99621.06;;;9.05;100.00
12203;BME280;6164;42.178;24.622;2024-02-23T08:14:16;99627.19;;;9.14;100.00
12203;BME280;6164;42.178;24.622;2024-02-23T08:16:42;99613.69;;;9.17;100.00
12203;BME280;6164;42.178;24.622;2024-02-23T08:19:09;99617.69;;;9.29;100.00
12203;BME280;6164;42.178;24.622;2024-02-23T08:21:36;99607.38;;;9.44;100.00
12203;BME280;6164;42.178;24.622;2024-02-23T08:24:02;99607.03;;;9.39;100.00
12203;BME280;6164;42.178;24.622;2024-02-23T08:26:29;99607.72;;;9.49;100.00
12203;BME280;6164;42.178;24.622;2024-02-23T08:28:57;99598.47;;;9.53;100.00
12203;BME280;6164;42.178;24.622;2024-02-23T08:31:24;99605.94;;;9.73;100.00
12203;BME280;6164;42.178;24.622;2024-02-23T08:33:50;99593.28;;;9.93;100.00
12203;BME280;6164;42.178;24.622;2024-02-23T08:36:17;99587.53;;;10.13;100.00
12203;BME280;6164;42.178;24.622;2024-02-23T08:38:43;99593.28;;;10.33;100.00
12203;BME280;6164;42.178;24.622;2024-02-23T08:41:10;99592.09;;;10.51;100.00
12203;BME280;6164;42.178;24.622;2024-02-23T08:43:36;99589.47;;;10.51;100.00
12203;BME280;6164;42.178;24.622;2024-02-23T08:46:04;99579.72;;;10.60;100.00
12203;BME280;6164;42.178;24.622;2024-02-23T08:48:31;99587.94;;;10.73;100.00
12203;BME280;6164;42.178;24.622;2024-02-23T08:50:57;99575.53;;;10.82;100.00
12203;BME280;6164;42.178;24.622;2024-02-23T08:53:24;99581.81;;;10.81;100.00
12203;BME280;6164;42.178;24.622;2024-02-23T08:55:50;99582.56;;;10.97;100.00
12203;BME280;6164;42.178;24.622;2024-02-23T08:58:16;99584.16;;;11.14;100.00
12203;BME280;6164;42.178;24.622;2024-02-23T09:00:43;99578.66;;;11.24;100.00
12203;BME280;6164;42.178;24.622;2024-02-23T09:03:11;99572.34;;;11.33;100.00
12203;BME280;6164;42.178;24.622;2024-02-23T09:05:37;99585.13;;;11.52;100.00
12203;BME280;6164;42.178;24.622;2024-02-23T09:08:05;99568.84;;;11.71;100.00
12203;BME280;6164;42.178;24.622;2024-02-23T09:10:31;99567.88;;;11.86;100.00
12203;BME280;6164;42.178;24.622;2024-02-23T09:12:58;99567.94;;;12.01;98.73
12203;BME280;6164;42.178;24.622;2024-02-23T09:15:24;99564.88;;;12.12;94.94
12203;BME280;6164;42.178;24.622;2024-02-23T09:17:51;99571.56;;;12.23;93.16
12203;BME280;6164;42.178;24.622;2024-02-23T09:20:19;99565.66;;;12.35;92.91
12203;BME280;6164;42.178;24.622;2024-02-23T09:22:45;99568.88;;;12.45;91.02
12203;BME280;6164;42.178;24.622;2024-02-23T09:25:12;99559.56;;;12.49;92.32
12203;BME280;6164;42.178;24.622;2024-02-23T09:27:38;99549.69;;;12.58;91.26
12203;BME280;6164;42.178;24.622;2024-02-23T09:30:09;99551.78;;;12.62;90.56
12203;BME280;6164;42.178;24.622;2024-02-23T09:32:35;99551.19;;;12.75;89.78
12203;BME280;6164;42.178;24.622;2024-02-23T09:35:02;99554.91;;;12.80;87.84
12203;BME280;6164;42.178;24.622;2024-02-23T09:37:30;99550.34;;;12.74;88.19
12203;BME280;6164;42.178;24.622;2024-02-23T09:39:57;99543.13;;;12.83;88.45
12203;BME280;6164;42.178;24.622;2024-02-23T09:42:23;99540.47;;;12.97;87.85
12203;BME280;6164;42.178;24.622;2024-02-23T09:44:51;99536.66;;;13.14;86.46
12203;BME280;6164;42.178;24.622;2024-02-23T09:47:21;99528.66;;;13.29;85.51
12203;BME280;6164;42.178;24.622;2024-02-23T09:49:47;99530.44;;;13.43;83.49
12203;BME280;6164;42.178;24.622;2024-02-23T09:52:15;99535.06;;;13.56;82.73
12203;BME280;6164;42.178;24.622;2024-02-23T09:54:44;99532.03;;;13.59;81.22
12203;BME280;6164;42.178;24.622;2024-02-23T09:57:11;99526.22;;;13.70;81.29
12203;BME280;6164;42.178;24.622;2024-02-23T09:59:37;99523.69;;;13.83;81.41
12203;BME280;6164;42.178;24.622;2024-02-23T10:02:04;99527.91;;;13.98;79.05
12203;BME280;6164;42.178;24.622;2024-02-23T10:04:33;99520.91;;;14.18;78.81
12203;BME280;6164;42.178;24.622;2024-02-23T10:07:00;99522.69;;;14.32;78.15
12203;BME280;6164;42.178;24.622;2024-02-23T10:09:26;99520.31;;;14.44;76.94
12203;BME280;6164;42.178;24.622;2024-02-23T10:11:54;99522.38;;;14.48;75.84
12203;BME280;6164;42.178;24.622;2024-02-23T10:14:21;99518.97;;;14.55;75.05
12203;BME280;6164;42.178;24.622;2024-02-23T10:16:47;99523.44;;;14.54;74.30
12203;BME280;6164;42.178;24.622;2024-02-23T10:19:18;99520.00;;;14.60;75.44
12203;BME280;6164;42.178;24.622;2024-02-23T10:21:44;99519.38;;;14.58;74.63
12203;BME280;6164;42.178;24.622;2024-02-23T10:24:11;99497.34;;;14.64;75.46
12203;BME280;6164;42.178;24.622;2024-02-23T10:26:37;99496.78;;;14.75;74.43
12203;BME280;6164;42.178;24.622;2024-02-23T10:29:05;99499.25;;;14.77;74.05
12203;BME280;6164;42.178;24.622;2024-02-23T10:31:34;99498.28;;;14.84;73.83
12203;BME280;6164;42.178;24.622;2024-02-23T10:34:01;99492.38;;;14.95;73.90
12203;BME280;6164;42.178;24.622;2024-02-23T10:36:32;99494.47;;;15.13;73.82
12203;BME280;6164;42.178;24.622;2024-02-23T10:38:59;99493.88;;;15.17;72.35
12203;BME280;6164;42.178;24.622;2024-02-23T10:41:28;99491.84;;;15.26;71.57
12203;BME280;6164;42.178;24.622;2024-02-23T10:43:58;99481.03;;;15.34;70.89
12203;BME280;6164;42.178;24.622;2024-02-23T10:46:26;99471.28;;;15.47;71.13
12203;BME280;6164;42.178;24.622;2024-02-23T10:48:54;99481.94;;;15.54;68.48
12203;BME280;6164;42.178;24.622;2024-02-23T10:51:21;99475.63;;;15.61;69.87
12203;BME280;6164;42.178;24.622;2024-02-23T10:53:48;99480.53;;;15.64;68.70
12203;BME280;6164;42.178;24.622;2024-02-23T10:56:15;99476.84;;;15.78;67.78
12203;BME280;6164;42.178;24.622;2024-02-23T10:58:41;99487.06;;;15.75;66.17
12203;BME280;6164;42.178;24.622;2024-02-23T11:01:08;99477.66;;;15.92;66.94
12203;BME280;6164;42.178;24.622;2024-02-23T11:03:37;99475.19;;;16.04;66.18
12203;BME280;6164;42.178;24.622;2024-02-23T11:06:05;99477.44;;;16.13;65.95
12203;BME280;6164;42.178;24.622;2024-02-23T11:08:32;99476.41;;;16.21;64.59
12203;BME280;6164;42.178;24.622;2024-02-23T11:11:06;99481.34;;;16.24;63.67
12203;BME280;6164;42.178;24.622;2024-02-23T11:13:34;99476.22;;;16.22;64.02
12203;BME280;6164;42.178;24.622;2024-02-23T11:16:01;99472.91;;;16.27;62.84
12203;BME280;6164;42.178;24.622;2024-02-23T11:18:28;99479.06;;;16.34;62.35
12203;BME280;6164;42.178;24.622;2024-02-23T11:20:56;99506.91;;;16.44;60.37
12203;BME280;6164;42.178;24.622;2024-02-23T11:23:22;99540.97;;;16.49;58.01
12203;BME280;6164;42.178;24.622;2024-02-23T11:26:04;99532.13;;;16.55;58.51
12203;BME280;6164;42.178;24.622;2024-02-23T11:28:30;99525.97;;;16.54;58.49
12203;BME280;6164;42.178;24.622;2024-02-23T11:30:57;99534.78;;;16.61;57.70
12203;BME280;6164;42.178;24.622;2024-02-23T11:33:27;99549.16;;;16.67;56.47
12203;BME280;6164;42.178;24.622;2024-02-23T11:36:05;99530.44;;;16.86;57.93
12203;BME280;6164;42.178;24.622;2024-02-23T11:38:32;99511.50;;;17.01;59.12
12203;BME280;6164;42.178;24.622;2024-02-23T11:40:59;99499.72;;;17.15;59.09
12203;BME280;6164;42.178;24.622;2024-02-23T11:43:26;99503.16;;;17.29;58.64
12203;BME280;6164;42.178;24.622;2024-02-23T11:45:53;99521.25;;;17.20;56.58
12203;BME280;6164;42.178;24.622;2024-02-23T11:48:19;99524.13;;;17.19;56.30
12203;BME280;6164;42.178;24.622;2024-02-23T11:50:47;99506.69;;;17.23;56.92
12203;BME280;6164;42.178;24.622;2024-02-23T11:53:15;99509.31;;;17.29;57.46
12203;BME280;6164;42.178;24.622;2024-02-23T11:55:44;99513.81;;;17.29;56.44
12203;BME280;6164;42.178;24.622;2024-02-23T11:58:11;99509.91;;;17.38;56.36
12203;BME280;6164;42.178;24.622;2024-02-23T12:00:37;99497.13;;;17.53;57.31
12203;BME280;6164;42.178;24.622;2024-02-23T12:03:04;99512.66;;;17.62;56.23
12203;BME280;6164;42.178;24.622;2024-02-23T12:05:30;99508.19;;;17.81;56.37
12203;BME280;6164;42.178;24.622;2024-02-23T12:07:57;99511.38;;;17.96;55.42
12203;BME280;6164;42.178;24.622;2024-02-23T12:10:25;99519.31;;;17.78;54.52
12203;BME280;6164;42.178;24.622;2024-02-23T12:12:52;99509.13;;;17.93;55.76
12203;BME280;6164;42.178;24.622;2024-02-23T12:15:18;99509.19;;;18.11;54.58
12203;BME280;6164;42.178;24.622;2024-02-23T12:17:48;99517.22;;;18.11;53.26
12203;BME280;6164;42.178;24.622;2024-02-23T12:20:15;99538.31;;;18.19;52.59
12203;BME280;6164;42.178;24.622;2024-02-23T12:22:42;99538.03;;;18.27;52.41
12203;BME280;6164;42.178;24.622;2024-02-23T12:25:08;99538.75;;;18.16;52.59
12203;BME280;6164;42.178;24.622;2024-02-23T12:27:36;99531.88;;;18.26;52.61
12203;BME280;6164;42.178;24.622;2024-02-23T12:30:03;99531.59;;;18.34;52.60
12203;BME280;6164;42.178;24.622;2024-02-23T12:32:29;99534.56;;;18.51;52.47
12203;BME280;6164;42.178;24.622;2024-02-23T12:34:56;99542.13;;;18.54;52.29
12203;BME280;6164;42.178;24.622;2024-02-23T12:37:22;99533.22;;;18.60;51.88
12203;BME280;6164;42.178;24.622;2024-02-23T12:39:49;99539.84;;;18.58;51.58
12203;BME280;6164;42.178;24.622;2024-02-23T12:42:15;99537.78;;;18.78;52.13
12203;BME280;6164;42.178;24.622;2024-02-23T12:44:44;99542.84;;;18.86;51.03
12203;BME280;6164;42.178;24.622;2024-02-23T12:47:11;99548.78;;;18.88;51.05
12203;BME280;6164;42.178;24.622;2024-02-23T12:49:37;99553.03;;;18.95;50.80
12203;BME280;6164;42.178;24.622;2024-02-23T12:52:04;99570.78;;;19.08;50.37
12203;BME280;6164;42.178;24.622;2024-02-23T12:54:31;99575.25;;;19.14;49.53
12203;BME280;6164;42.178;24.622;2024-02-23T12:56:57;99562.00;;;19.19;50.09
12203;BME280;6164;42.178;24.622;2024-02-23T12:59:23;99566.41;;;18.95;49.33